createdAt,value
2022-12-13T00:01:13.207Z,61.07
2022-12-13T00:06:16.591Z,56.07
2022-12-13T00:11:18.537Z,62.00
2022-12-13T00:16:22.714Z,61.50
2022-12-13T00:21:27.106Z,56.40
2022-12-13T00:26:29.899Z,66.30
2022-12-13T00:36:55.419Z,70.90
2022-12-13T00:41:57.306Z,61.43
2022-12-13T00:46:59.739Z,60.07
2022-12-13T00:52:03.022Z,54.90
2022-12-13T00:57:05.012Z,65.53
2022-12-13T01:02:06.821Z,70.97
2022-12-13T01:07:09.975Z,64.40
2022-12-13T01:12:11.907Z,71.03
2022-12-13T01:17:13.815Z,63.83
2022-12-13T01:22:17.044Z,67.20
2022-12-13T01:27:18.980Z,68.47
2022-12-13T01:32:20.762Z,68.97
2022-12-13T01:37:26.009Z,76.60
2022-12-13T01:42:28.137Z,73.00
2022-12-13T01:47:31.948Z,80.17
2022-12-13T01:52:35.157Z,68.33
2022-12-13T01:57:40.762Z,69.97
2022-12-13T02:02:45.699Z,65.20
2022-12-13T02:07:48.899Z,68.87
2022-12-13T02:12:50.732Z,66.87
2022-12-13T02:17:58.327Z,61.90
2022-12-13T02:23:12.979Z,66.20
2022-12-13T02:28:31.312Z,64.00
2022-12-13T02:33:40.251Z,68.80
2022-12-13T02:38:46.134Z,61.17
2022-12-13T02:43:49.284Z,69.47
2022-12-13T02:48:53.066Z,64.30
2022-12-13T02:53:54.925Z,67.60
2022-12-13T02:58:56.780Z,58.47
2022-12-13T03:04:05.603Z,65.70
2022-12-13T03:09:17.993Z,65.70
2022-12-13T03:14:20.075Z,61.17
2022-12-13T03:19:23.197Z,79.23
2022-12-13T03:24:24.979Z,70.93
2022-12-13T03:29:26.816Z,69.90
2022-12-13T03:34:44.910Z,72.07
2022-12-13T03:39:47.994Z,64.27
2022-12-13T03:44:49.865Z,73.77
2022-12-13T03:49:54.362Z,78.57
2022-12-13T03:54:56.483Z,73.17
2022-12-13T03:59:58.385Z,68.57
2022-12-13T04:05:01.667Z,71.43
2022-12-13T04:10:03.751Z,67.50
2022-12-13T04:15:25.784Z,69.30
2022-12-13T04:20:29.013Z,59.03
2022-12-13T04:25:30.998Z,70.07
2022-12-13T04:30:32.985Z,74.93
2022-12-13T04:35:36.098Z,75.03
2022-12-13T04:40:37.980Z,78.40
2022-12-13T04:45:39.792Z,70.00
2022-12-13T04:50:42.986Z,75.43
2022-12-13T04:55:44.812Z,62.13
2022-12-13T05:00:46.640Z,71.77
2022-12-13T05:05:49.765Z,67.20
2022-12-13T05:10:51.589Z,70.00
2022-12-13T05:15:56.640Z,87.93
2022-12-13T05:21:03.081Z,74.63
2022-12-13T05:26:05.051Z,74.47
2022-12-13T05:31:23.048Z,70.43
2022-12-13T05:36:27.121Z,68.97
2022-12-13T05:41:29.526Z,66.30
2022-12-13T05:46:31.613Z,67.23
2022-12-13T05:51:36.623Z,70.67
2022-12-13T05:56:38.379Z,63.17
2022-12-13T06:01:43.607Z,62.90
2022-12-13T06:06:47.259Z,71.20
2022-12-13T06:12:00.903Z,67.50
2022-12-13T06:17:03.325Z,74.83
2022-12-13T06:22:06.502Z,73.30
2022-12-13T06:27:08.252Z,67.20
2022-12-13T06:32:10.479Z,66.10
2022-12-13T06:37:13.822Z,75.47
2022-12-13T06:42:21.767Z,63.03
2022-12-13T06:47:31.937Z,72.80
2022-12-13T06:52:35.726Z,60.77
2022-12-13T06:57:37.508Z,65.60
2022-12-13T07:02:42.791Z,79.03
2022-12-13T07:07:46.101Z,68.07
2022-12-13T07:12:47.983Z,70.93
2022-12-13T07:17:50.367Z,67.30
2022-12-13T07:22:58.858Z,75.20
2022-12-13T07:28:02.898Z,83.33
2022-12-13T07:33:05.238Z,77.30
2022-12-13T07:38:08.459Z,66.00
2022-12-13T07:43:11.836Z,67.30
2022-12-13T07:48:13.617Z,67.20
2022-12-13T07:53:17.010Z,61.23
2022-12-13T07:58:18.902Z,82.90
2022-12-13T08:03:25.559Z,80.67
2022-12-13T08:08:30.973Z,76.37
2022-12-13T08:13:33.833Z,95.10
2022-12-13T08:18:35.999Z,103.63
2022-12-13T08:23:39.086Z,93.13
2022-12-13T08:28:40.806Z,85.37
2022-12-13T08:33:45.533Z,69.53
2022-12-13T08:38:48.648Z,74.23
2022-12-13T08:43:50.787Z,63.47
2022-12-13T08:48:53.231Z,52.00
2022-12-13T08:54:10.668Z,37.57
2022-12-13T08:59:13.225Z,34.50
2022-12-13T09:04:18.026Z,37.33
2022-12-13T09:09:34.963Z,43.13
2022-12-13T09:14:45.053Z,38.30
2022-12-13T09:19:47.281Z,37.87
2022-12-13T09:24:50.465Z,41.93
2022-12-13T09:29:52.199Z,43.97
2022-12-13T09:34:54.024Z,41.63
2022-12-13T09:39:57.250Z,41.37
2022-12-13T09:45:03.236Z,41.03
2022-12-13T09:50:06.446Z,44.73
2022-12-13T09:55:18.959Z,40.10
2022-12-13T10:00:21.817Z,40.20
2022-12-13T10:05:34.287Z,37.93
2022-12-13T10:10:42.215Z,40.20
2022-12-13T10:15:47.427Z,34.30
2022-12-13T10:20:49.171Z,40.53
2022-12-13T10:25:55.022Z,48.73
2022-12-13T10:31:05.604Z,34.80
2022-12-13T10:36:09.614Z,32.23
2022-12-13T10:41:27.566Z,32.10
2022-12-13T10:46:31.115Z,29.77
2022-12-13T10:51:40.265Z,28.87
2022-12-13T10:56:45.632Z,24.70
2022-12-13T11:01:47.403Z,27.50
2022-12-13T11:06:49.180Z,24.23
2022-12-13T11:11:59.059Z,28.17
2022-12-13T11:17:06.492Z,24.17
2022-12-13T11:22:08.762Z,25.83
2022-12-13T11:27:24.408Z,23.23
2022-12-13T11:32:33.338Z,26.13
2022-12-13T11:37:39.177Z,25.27
2022-12-13T11:42:44.040Z,29.07
2022-12-13T11:47:49.983Z,30.80
2022-12-13T11:53:01.671Z,29.93
2022-12-13T11:58:07.299Z,26.30
2022-12-13T12:03:17.747Z,44.27
2022-12-13T12:08:32.415Z,77.00
2022-12-13T12:13:50.800Z,175.63
2022-12-13T12:19:01.518Z,48.77
2022-12-13T12:24:15.932Z,29.37
2022-12-13T12:29:50.649Z,29.13
2022-12-13T12:34:55.937Z,26.80
2022-12-13T12:40:15.374Z,26.00
2022-12-13T12:45:55.212Z,23.30
2022-12-13T12:50:50.865Z,29.87
2022-12-13T12:56:00.826Z,22.57
2022-12-13T13:01:13.238Z,27.67
2022-12-13T13:06:16.692Z,37.90
2022-12-13T13:11:24.362Z,25.53
2022-12-13T13:16:34.295Z,24.73
2022-12-13T13:21:46.344Z,36.43
2022-12-13T13:26:49.693Z,32.53
2022-12-13T13:32:01.135Z,44.83
2022-12-13T13:37:27.247Z,53.83
2022-12-13T13:42:29.381Z,28.00
2022-12-13T13:47:38.970Z,27.30
2022-12-13T13:52:45.987Z,30.60
2022-12-13T13:58:29.959Z,28.00
2022-12-13T14:03:58.032Z,29.30
2022-12-13T14:09:21.854Z,34.90
2022-12-13T14:14:51.536Z,44.17
2022-12-13T14:20:23.544Z,36.50
2022-12-13T14:25:42.273Z,41.73
2022-12-13T14:30:48.312Z,34.57
2022-12-13T14:36:01.710Z,38.50
2022-12-13T14:41:03.682Z,33.20
2022-12-13T14:46:06.475Z,38.03
2022-12-13T14:51:29.661Z,41.77
2022-12-13T14:56:31.410Z,36.23
2022-12-13T15:01:34.157Z,46.60
2022-12-13T15:06:37.243Z,41.87
2022-12-13T15:11:39.134Z,38.67
2022-12-13T15:16:41.065Z,34.10
2022-12-13T15:21:58.618Z,49.93
